createdAt,value
2019-04-29T00:02:17.649Z,4.86
2019-04-29T00:04:47.051Z,4.85
2019-04-29T00:07:16.455Z,4.81
2019-04-29T00:09:46.922Z,4.83
2019-04-29T00:12:17.162Z,4.85
2019-04-29T00:14:48.280Z,4.83
2019-04-29T00:17:25.479Z,4.82
2019-04-29T00:20:12.668Z,4.78
2019-04-29T00:22:42.071Z,4.76
2019-04-29T00:25:11.740Z,4.71
2019-04-29T00:27:41.472Z,4.60
2019-04-29T00:30:12.831Z,4.56
2019-04-29T00:32:42.244Z,4.55
2019-04-29T00:35:11.626Z,4.54
2019-04-29T00:37:45.655Z,4.54
2019-04-29T00:40:25.698Z,4.53
2019-04-29T00:42:59.466Z,4.45
2019-04-29T00:45:28.926Z,4.37
2019-04-29T00:47:58.336Z,4.33
2019-04-29T00:50:27.734Z,4.23
2019-04-29T00:52:57.132Z,4.15
2019-04-29T00:55:28.188Z,4.06
2019-04-29T00:57:57.601Z,4.03
2019-04-29T01:00:31.500Z,4.11
2019-04-29T01:03:00.964Z,4.06
2019-04-29T01:05:30.384Z,4.09
2019-04-29T01:07:59.770Z,4.07
2019-04-29T01:10:29.706Z,4.09
2019-04-29T01:13:00.700Z,4.08
2019-04-29T01:15:30.114Z,4.08
2019-04-29T01:17:59.680Z,4.04
2019-04-29T01:20:29.083Z,4.03
2019-04-29T01:22:58.542Z,3.97
2019-04-29T01:25:27.942Z,3.95
2019-04-29T01:28:02.074Z,3.95
2019-04-29T01:30:52.772Z,3.90
2019-04-29T01:33:22.620Z,3.85
2019-04-29T01:35:53.648Z,3.79
2019-04-29T01:38:23.060Z,3.73
2019-04-29T01:40:57.031Z,3.69
2019-04-29T01:43:28.080Z,3.62
2019-04-29T01:45:57.473Z,3.60
2019-04-29T01:48:26.875Z,3.56
2019-04-29T01:50:56.261Z,3.57
2019-04-29T01:53:25.683Z,3.62
2019-04-29T01:55:55.072Z,3.63
2019-04-29T01:58:24.480Z,3.64
2019-04-29T02:00:53.969Z,3.58
2019-04-29T02:03:23.392Z,3.56
2019-04-29T02:05:52.779Z,3.53
2019-04-29T02:08:22.208Z,3.47
2019-04-29T02:10:52.276Z,3.47
2019-04-29T02:13:23.359Z,3.55
2019-04-29T02:15:52.763Z,3.69
2019-04-29T02:18:22.183Z,3.72
2019-04-29T02:20:51.579Z,3.76
2019-04-29T02:23:22.643Z,3.74
2019-04-29T02:25:52.097Z,3.67
2019-04-29T02:28:21.514Z,3.60
2019-04-29T02:30:52.858Z,3.57
2019-04-29T02:33:22.253Z,3.55
2019-04-29T02:35:51.663Z,3.55
2019-04-29T02:38:34.729Z,3.50
2019-04-29T02:41:05.778Z,3.46
2019-04-29T02:43:42.808Z,3.38
2019-04-29T02:46:12.410Z,3.35
2019-04-29T02:48:41.819Z,3.38
2019-04-29T02:51:12.860Z,3.33
2019-04-29T02:53:42.292Z,3.28
2019-04-29T02:56:11.683Z,3.21
2019-04-29T02:58:42.740Z,3.19
2019-04-29T03:01:16.947Z,3.19
2019-04-29T03:04:00.060Z,3.16
2019-04-29T03:06:29.467Z,3.18
2019-04-29T03:08:58.938Z,3.19
2019-04-29T03:11:28.428Z,3.27
2019-04-29T03:13:57.804Z,3.36
2019-04-29T03:16:27.374Z,3.51
2019-04-29T03:18:59.070Z,3.52
2019-04-29T03:21:33.118Z,3.57
2019-04-29T03:24:02.566Z,3.64
2019-04-29T03:26:31.918Z,3.66
2019-04-29T03:29:01.345Z,3.78
2019-04-29T03:31:30.811Z,3.81
2019-04-29T03:34:00.208Z,3.88
2019-04-29T03:36:29.626Z,3.96
2019-04-29T03:38:59.046Z,3.96
2019-04-29T03:41:28.425Z,4.01
2019-04-29T03:43:57.934Z,4.06
2019-04-29T03:46:27.336Z,4.07
2019-04-29T03:48:56.738Z,4.09
2019-04-29T03:51:26.147Z,4.11
2019-04-29T03:53:55.542Z,4.12
2019-04-29T03:56:24.977Z,4.14
2019-04-29T03:58:54.453Z,4.17
2019-04-29T04:01:34.258Z,4.22
2019-04-29T04:04:05.302Z,4.29
2019-04-29T04:06:36.331Z,4.28
2019-04-29T04:11:51.413Z,4.31
2019-04-29T04:14:20.850Z,4.31
2019-04-29T04:17:06.905Z,4.29
2019-04-29T04:19:36.314Z,4.40
2019-04-29T04:22:05.707Z,4.39
2019-04-29T04:24:35.166Z,4.40
2019-04-29T04:27:04.639Z,4.37
2019-04-29T04:29:34.170Z,4.45
2019-04-29T04:32:03.568Z,4.44
2019-04-29T04:34:32.974Z,4.52
2019-04-29T04:37:02.377Z,4.53
2019-04-29T04:39:33.437Z,4.52
2019-04-29T04:42:02.827Z,4.51
2019-04-29T04:44:39.557Z,4.55
2019-04-29T04:47:08.962Z,4.58
2019-04-29T04:49:38.420Z,4.55
2019-04-29T04:52:07.836Z,4.58
2019-04-29T04:54:37.316Z,4.58
2019-04-29T04:57:06.739Z,4.60
2019-04-29T04:59:36.147Z,4.60
2019-04-29T05:02:05.559Z,4.56
2019-04-29T05:04:34.950Z,4.57
2019-04-29T05:07:04.467Z,4.58
2019-04-29T05:09:33.942Z,4.66
2019-04-29T05:12:03.426Z,4.61
2019-04-29T05:14:34.432Z,4.62
2019-04-29T05:17:03.838Z,4.69
2019-04-29T05:19:33.250Z,4.73
2019-04-29T05:22:02.654Z,4.69
2019-04-29T05:24:32.060Z,4.69
2019-04-29T05:27:01.441Z,4.80
2019-04-29T05:29:30.929Z,4.75
2019-04-29T05:32:00.396Z,4.89
2019-04-29T05:34:31.441Z,5.03
2019-04-29T05:37:18.507Z,5.12
2019-04-29T05:39:47.928Z,5.18
2019-04-29T05:42:17.412Z,5.27
2019-04-29T05:44:51.412Z,5.35
2019-04-29T05:47:38.660Z,5.42
2019-04-29T05:50:26.647Z,5.48
2019-04-29T05:52:57.690Z,5.57
2019-04-29T05:55:27.120Z,5.65
2019-04-29T05:58:03.032Z,5.69
2019-04-29T06:00:29.270Z,5.73
2019-04-29T06:02:58.768Z,5.66
2019-04-29T06:05:28.289Z,5.61
2019-04-29T06:08:01.189Z,5.63
2019-04-29T06:10:28.787Z,5.64
2019-04-29T06:12:58.173Z,5.76
2019-04-29T06:15:27.579Z,5.94
2019-04-29T06:17:56.971Z,5.99
2019-04-29T06:20:26.461Z,6.07
2019-04-29T06:22:55.857Z,6.12
2019-04-29T06:27:50.909Z,6.27
2019-04-29T06:30:20.355Z,6.09
2019-04-29T06:32:49.738Z,6.20
2019-04-29T06:35:19.226Z,6.24
2019-04-29T06:37:48.619Z,6.36
2019-04-29T06:40:18.031Z,6.41
2019-04-29T06:42:49.466Z,6.58
2019-04-29T06:45:18.707Z,6.71
2019-04-29T06:47:48.114Z,6.87
2019-04-29T06:50:17.963Z,6.94
2019-04-29T06:52:47.419Z,7.08
2019-04-29T06:55:17.003Z,7.18
2019-04-29T06:57:46.393Z,7.41
2019-04-29T07:00:17.571Z,7.43
2019-04-29T07:02:49.861Z,7.45
2019-04-29T07:05:18.101Z,7.45
2019-04-29T07:07:47.498Z,7.53
2019-04-29T07:10:21.790Z,7.70
2019-04-29T07:12:48.501Z,7.79
2019-04-29T07:15:19.586Z,7.54
2019-04-29T07:17:49.024Z,7.73
2019-04-29T07:20:18.435Z,7.82
2019-04-29T07:22:47.821Z,8.13
2019-04-29T07:25:17.234Z,8.27
2019-04-29T07:27:46.628Z,8.63
2019-04-29T07:30:16.360Z,8.91
2019-04-29T07:32:46.975Z,9.34
2019-04-29T07:35:17.009Z,9.35
2019-04-29T07:37:46.388Z,9.61
2019-04-29T07:40:17.618Z,9.79
2019-04-29T07:42:47.143Z,9.77
2019-04-29T07:45:23.893Z,9.80
2019-04-29T07:47:56.543Z,9.88
2019-04-29T07:50:26.839Z,10.12
2019-04-29T07:52:56.247Z,10.35
2019-04-29T07:55:30.211Z,10.49
2019-04-29T07:57:57.022Z,10.61
2019-04-29T08:00:34.477Z,10.63
2019-04-29T08:03:07.133Z,10.65
2019-04-29T08:05:36.791Z,10.62
2019-04-29T08:08:06.481Z,10.62
2019-04-29T08:10:35.978Z,10.62
2019-04-29T08:13:08.033Z,10.65
2019-04-29T08:15:41.559Z,10.84
2019-04-29T08:18:11.432Z,10.88
2019-04-29T08:20:41.526Z,11.22
2019-04-29T08:23:10.941Z,11.42
2019-04-29T08:25:40.377Z,11.78
2019-04-29T08:28:10.606Z,12.48
2019-04-29T08:30:41.899Z,13.08
2019-04-29T08:33:12.001Z,13.93
2019-04-29T08:35:42.447Z,14.67
2019-04-29T08:38:11.883Z,14.50
2019-04-29T08:40:45.232Z,14.45
2019-04-29T08:43:15.841Z,15.52
2019-04-29T08:46:02.205Z,17.26
2019-04-29T08:48:31.617Z,19.45
2019-04-29T08:51:01.033Z,20.89
2019-04-29T08:53:30.511Z,20.39
2019-04-29T08:55:59.934Z,21.19
2019-04-29T08:58:29.327Z,21.86
2019-04-29T09:00:58.751Z,23.47
2019-04-29T09:03:39.691Z,23.32
2019-04-29T09:06:05.389Z,23.92
2019-04-29T09:08:32.985Z,24.34
2019-04-29T09:11:01.581Z,25.28
2019-04-29T09:13:32.149Z,25.46
2019-04-29T09:16:03.183Z,25.01
2019-04-29T09:18:32.625Z,24.45
2019-04-29T09:21:02.205Z,24.24
2019-04-29T09:23:33.250Z,25.09
2019-04-29T09:26:06.970Z,24.56
2019-04-29T09:28:36.364Z,25.50
2019-04-29T09:31:05.930Z,28.70
2019-04-29T09:33:35.406Z,27.91
2019-04-29T09:36:04.887Z,28.23
2019-04-29T09:38:36.865Z,29.44
2019-04-29T09:41:07.118Z,28.89
2019-04-29T09:43:38.150Z,29.73
2019-04-29T09:46:18.463Z,30.48
2019-04-29T09:48:46.370Z,31.09
2019-04-29T09:51:17.637Z,30.81
2019-04-29T09:53:46.886Z,29.90
2019-04-29T09:56:16.377Z,30.23
2019-04-29T09:58:45.790Z,31.57
2019-04-29T10:01:18.931Z,31.87
2019-04-29T10:03:52.473Z,30.09
2019-04-29T10:06:23.533Z,31.45
2019-04-29T10:08:52.931Z,31.50
2019-04-29T10:11:22.398Z,32.41
2019-04-29T10:13:54.523Z,31.36
2019-04-29T10:16:27.310Z,30.78
2019-04-29T10:19:00.732Z,32.66
2019-04-29T10:21:29.561Z,33.94
2019-04-29T10:23:59.055Z,33.40
2019-04-29T10:26:28.519Z,33.16
2019-04-29T10:28:59.578Z,34.14
2019-04-29T10:31:29.043Z,34.59
2019-04-29T10:33:58.456Z,34.54
2019-04-29T10:36:28.025Z,33.48
2019-04-29T10:38:59.074Z,32.29
2019-04-29T10:41:30.512Z,33.07
2019-04-29T10:44:07.393Z,31.39
2019-04-29T10:46:54.701Z,31.56
2019-04-29T10:49:25.769Z,31.72
2019-04-29T10:51:57.958Z,32.21
2019-04-29T10:54:28.616Z,32.59
2019-04-29T10:56:58.249Z,34.26
2019-04-29T10:59:36.121Z,34.93
2019-04-29T11:02:15.775Z,34.03
2019-04-29T11:04:46.621Z,33.13
2019-04-29T11:07:27.677Z,32.99
2019-04-29T11:09:59.039Z,33.46
2019-04-29T11:12:28.521Z,32.14
2019-04-29T11:15:01.205Z,31.08
2019-04-29T11:17:29.376Z,30.96
2019-04-29T11:19:58.861Z,30.23
2019-04-29T11:22:33.868Z,29.53
2019-04-29T11:25:13.435Z,30.25
2019-04-29T11:27:56.562Z,29.87
2019-04-29T11:30:30.291Z,28.41
2019-04-29T11:33:16.278Z,28.24
2019-04-29T11:36:05.441Z,28.23
2019-04-29T11:38:38.398Z,28.60
2019-04-29T11:41:06.125Z,28.97
2019-04-29T11:43:35.711Z,29.19
2019-04-29T11:46:05.452Z,29.38
2019-04-29T11:48:34.976Z,28.83
2019-04-29T11:51:22.292Z,28.76
2019-04-29T11:53:51.785Z,28.09
2019-04-29T11:56:21.356Z,26.63
2019-04-29T11:58:58.408Z,26.56
2019-04-29T12:01:39.223Z,26.87
2019-04-29T12:04:28.555Z,27.64
2019-04-29T12:06:58.268Z,26.92
2019-04-29T12:09:30.345Z,26.69
2019-04-29T12:11:58.787Z,26.41
2019-04-29T12:14:33.836Z,27.17
2019-04-29T12:17:09.152Z,27.20
2019-04-29T12:19:43.188Z,27.32
2019-04-29T12:22:26.948Z,28.01
2019-04-29T12:24:43.717Z,27.52
2019-04-29T12:27:14.805Z,26.15
2019-04-29T12:29:44.494Z,25.62
2019-04-29T12:32:25.125Z,24.76
2019-04-29T12:34:59.957Z,24.67
2019-04-29T12:37:37.348Z,24.51
2019-04-29T12:40:14.469Z,25.19
2019-04-29T12:42:55.174Z,24.93
2019-04-29T12:45:42.435Z,24.69
2019-04-29T12:48:23.925Z,23.79
2019-04-29T12:50:43.274Z,23.19
2019-04-29T12:53:12.665Z,22.92
2019-04-29T12:55:50.290Z,22.86
2019-04-29T12:58:19.301Z,22.70
2019-04-29T13:00:56.376Z,22.35
2019-04-29T13:03:41.086Z,21.65
2019-04-29T13:06:23.498Z,21.65
2019-04-29T13:08:56.309Z,21.41
2019-04-29T13:11:36.144Z,21.80
2019-04-29T13:14:01.766Z,21.85
2019-04-29T13:16:34.123Z,21.73
2019-04-29T13:19:12.286Z,21.48
2019-04-29T13:21:39.634Z,21.28
2019-04-29T13:24:18.177Z,21.06
2019-04-29T13:26:42.890Z,21.19
2019-04-29T13:29:25.882Z,21.30
2019-04-29T13:31:42.633Z,21.38
2019-04-29T13:34:23.516Z,20.99
2019-04-29T13:36:44.797Z,20.96
2019-04-29T13:39:14.656Z,21.05
2019-04-29T13:41:57.236Z,21.18
2019-04-29T13:44:19.396Z,20.97
2019-04-29T13:46:51.066Z,21.02
2019-04-29T13:49:23.716Z,21.52
2019-04-29T13:51:54.740Z,21.10
2019-04-29T13:54:24.152Z,20.88
2019-04-29T13:56:56.689Z,20.83
2019-04-29T13:59:26.365Z,20.66
2019-04-29T14:02:05.602Z,20.53
2019-04-29T14:04:32.994Z,20.53
2019-04-29T14:07:02.458Z,20.43
2019-04-29T14:09:35.033Z,20.31
2019-04-29T14:12:46.047Z,20.20
2019-04-29T14:14:34.072Z,20.27
2019-04-29T14:17:24.091Z,19.98
2019-04-29T14:19:40.942Z,19.76
2019-04-29T14:22:06.280Z,19.75
2019-04-29T14:24:35.778Z,19.82
2019-04-29T14:27:05.728Z,19.77
2019-04-29T14:29:35.132Z,19.61
2019-04-29T14:32:04.758Z,19.63
2019-04-29T14:34:38.463Z,19.43
2019-04-29T14:37:21.341Z,19.46
2019-04-29T14:39:38.990Z,19.31
2019-04-29T14:42:30.161Z,19.36
2019-04-29T14:44:58.970Z,19.40
2019-04-29T14:47:30.019Z,19.30
2019-04-29T14:50:10.595Z,19.15
2019-04-29T14:52:38.218Z,18.67
2019-04-29T14:55:07.799Z,18.92
2019-04-29T14:57:37.215Z,18.92
2019-04-29T15:00:10.198Z,18.84
2019-04-29T15:02:39.629Z,18.98
2019-04-29T15:05:12.274Z,18.89
2019-04-29T15:07:40.292Z,18.80
2019-04-29T15:10:14.177Z,18.92
2019-04-29T15:13:01.927Z,18.90
2019-04-29T15:15:34.207Z,18.85
2019-04-29T15:18:15.842Z,18.93
2019-04-29T15:20:50.924Z,18.89
2019-04-29T15:23:28.337Z,18.81
2019-04-29T15:25:51.437Z,18.67
2019-04-29T15:28:20.851Z,18.44
2019-04-29T15:30:50.261Z,18.51
2019-04-29T15:33:19.661Z,18.57
2019-04-29T15:35:49.069Z,18.74
2019-04-29T15:38:18.484Z,18.75
2019-04-29T15:40:47.989Z,18.86
2019-04-29T15:43:22.029Z,18.77
2019-04-29T15:45:48.512Z,18.72
2019-04-29T15:48:17.927Z,18.81
2019-04-29T15:50:47.323Z,18.28
2019-04-29T15:53:16.813Z,18.22
2019-04-29T15:55:46.214Z,17.83
2019-04-29T15:58:15.707Z,17.81
2019-04-29T16:00:45.180Z,17.77
2019-04-29T16:03:17.901Z,17.63
2019-04-29T16:06:11.236Z,17.35
2019-04-29T16:08:41.184Z,17.45
2019-04-29T16:11:29.438Z,17.41
2019-04-29T16:14:09.025Z,17.19
2019-04-29T16:16:34.028Z,17.28
2019-04-29T16:19:08.373Z,17.15
2019-04-29T16:21:39.493Z,17.13
2019-04-29T16:24:24.973Z,17.18
2019-04-29T16:26:37.708Z,17.17
2019-04-29T16:29:12.272Z,17.18
2019-04-29T16:31:38.262Z,17.17
2019-04-29T16:34:07.685Z,17.06
2019-04-29T16:36:37.067Z,17.06
2019-04-29T16:39:06.832Z,17.07
2019-04-29T16:41:37.864Z,17.06
2019-04-29T16:44:33.723Z,17.08
2019-04-29T16:46:40.449Z,17.01
2019-04-29T16:49:10.038Z,17.08
2019-04-29T16:51:39.514Z,17.14
2019-04-29T16:54:12.874Z,17.11
2019-04-29T16:56:40.021Z,17.04
2019-04-29T16:59:09.720Z,16.87
2019-04-29T17:01:39.178Z,16.84
2019-04-29T17:04:08.583Z,16.77
2019-04-29T17:06:41.517Z,16.72
2019-04-29T17:09:13.200Z,16.63
2019-04-29T17:11:44.333Z,16.52
2019-04-29T17:14:13.897Z,16.47
2019-04-29T17:16:43.356Z,16.43
2019-04-29T17:19:13.299Z,16.29
2019-04-29T17:21:42.712Z,16.26
2019-04-29T17:24:12.246Z,16.19
2019-04-29T17:26:43.297Z,16.12
2019-04-29T17:29:37.958Z,15.97
2019-04-29T17:32:03.393Z,15.77
2019-04-29T17:34:57.958Z,15.73
2019-04-29T17:37:06.410Z,15.67
2019-04-29T17:39:35.812Z,15.52
2019-04-29T17:42:05.216Z,15.45
2019-04-29T17:44:42.024Z,15.38
2019-04-29T17:47:25.207Z,15.26
2019-04-29T17:50:06.208Z,15.24
2019-04-29T17:52:35.129Z,15.17
2019-04-29T17:55:11.980Z,14.88
2019-04-29T17:57:48.464Z,14.84
2019-04-29T18:00:20.299Z,14.61
2019-04-29T18:03:03.121Z,14.44
2019-04-29T18:05:52.162Z,14.41
2019-04-29T18:08:19.192Z,14.29
2019-04-29T18:10:50.243Z,14.06
2019-04-29T18:13:24.011Z,13.96
2019-04-29T18:16:00.896Z,13.89
2019-04-29T18:18:26.370Z,13.81
2019-04-29T18:21:12.386Z,13.71
2019-04-29T18:23:51.543Z,13.64
2019-04-29T18:26:37.900Z,13.53
2019-04-29T18:29:08.129Z,13.48
2019-04-29T18:31:37.568Z,13.39
2019-04-29T18:34:07.050Z,13.29
2019-04-29T18:36:36.441Z,13.20
2019-04-29T18:39:09.039Z,13.11
2019-04-29T18:41:38.447Z,13.08
2019-04-29T18:44:07.928Z,13.02
2019-04-29T18:46:37.432Z,12.97
2019-04-29T18:49:07.224Z,12.98
2019-04-29T18:51:36.804Z,13.02
2019-04-29T18:54:06.310Z,13.03
2019-04-29T18:56:36.350Z,13.00
2019-04-29T18:59:06.926Z,12.98
2019-04-29T19:01:36.322Z,12.94
2019-04-29T19:04:18.955Z,12.92
2019-04-29T19:06:51.194Z,12.92
2019-04-29T19:09:20.847Z,12.89
2019-04-29T19:11:52.989Z,12.96
2019-04-29T19:14:25.585Z,12.99
2019-04-29T19:17:00.149Z,13.09
2019-04-29T19:19:25.333Z,13.06
2019-04-29T19:21:55.885Z,13.07
2019-04-29T19:24:27.497Z,12.98
2019-04-29T19:27:00.620Z,12.94
2019-04-29T19:29:27.659Z,12.84
2019-04-29T19:31:57.046Z,12.80
2019-04-29T19:34:26.569Z,12.72
2019-04-29T19:36:59.357Z,12.66
2019-04-29T19:39:27.277Z,12.59
2019-04-29T19:41:56.694Z,12.56
2019-04-29T19:44:33.115Z,12.49
2019-04-29T19:46:59.162Z,12.44
2019-04-29T19:49:28.501Z,12.45
2019-04-29T19:51:58.079Z,12.46
2019-04-29T19:54:28.631Z,12.42
2019-04-29T19:57:03.539Z,12.31
2019-04-29T19:59:29.801Z,12.30
2019-04-29T20:02:05.339Z,12.35
2019-04-29T20:04:32.775Z,12.30
2019-04-29T20:07:07.306Z,12.28
2019-04-29T20:09:36.328Z,12.27
2019-04-29T20:12:12.867Z,12.25
2019-04-29T20:14:37.275Z,12.20
2019-04-29T20:17:14.085Z,12.20
2019-04-29T20:19:58.828Z,12.20
2019-04-29T20:22:24.352Z,12.26
2019-04-29T20:24:55.724Z,12.32
2019-04-29T20:27:26.161Z,12.29
2019-04-29T20:29:56.194Z,12.22
2019-04-29T20:32:27.749Z,12.18
2019-04-29T20:35:06.703Z,12.16
2019-04-29T20:37:28.381Z,12.13
2019-04-29T20:40:00.798Z,12.13
2019-04-29T20:42:29.222Z,12.10
2019-04-29T20:44:58.794Z,12.10
2019-04-29T20:47:37.609Z,12.15
2019-04-29T20:49:59.788Z,12.13
2019-04-29T20:52:31.153Z,12.09
2019-04-29T20:55:02.666Z,12.07
2019-04-29T20:57:31.942Z,12.04
2019-04-29T21:00:01.858Z,12.04
2019-04-29T21:02:35.366Z,12.03
2019-04-29T21:05:02.621Z,12.05
2019-04-29T21:07:32.166Z,12.08
2019-04-29T21:10:05.901Z,11.98
2019-04-29T21:12:38.417Z,11.99
2019-04-29T21:15:19.125Z,12.00
2019-04-29T21:17:48.768Z,12.02
2019-04-29T21:20:18.190Z,12.05
2019-04-29T21:22:47.611Z,12.11
2019-04-29T21:25:17.025Z,12.10
2019-04-29T21:27:48.488Z,12.06
2019-04-29T21:30:18.528Z,11.98
2019-04-29T21:32:47.932Z,11.90
2019-04-29T21:35:21.888Z,11.83
2019-04-29T21:38:09.242Z,11.81
2019-04-29T21:40:40.306Z,11.85
2019-04-29T21:43:17.595Z,11.86
2019-04-29T21:45:48.343Z,11.85
2019-04-29T21:48:37.388Z,11.89
2019-04-29T21:51:11.077Z,11.86
2019-04-29T21:53:40.243Z,11.83
2019-04-29T21:56:09.651Z,11.82
2019-04-29T21:58:39.073Z,11.82
2019-04-29T22:01:09.359Z,11.78
2019-04-29T22:03:38.749Z,11.80
2019-04-29T22:06:08.179Z,11.81
2019-04-29T22:08:37.657Z,11.76
2019-04-29T22:11:07.175Z,11.74
2019-04-29T22:13:39.087Z,11.71
2019-04-29T22:16:11.551Z,11.71
2019-04-29T22:18:39.225Z,11.67
2019-04-29T22:21:10.090Z,11.63
2019-04-29T22:23:44.370Z,11.61
2019-04-29T22:26:10.841Z,11.66
2019-04-29T22:28:40.236Z,11.67
2019-04-29T22:31:09.664Z,11.63
2019-04-29T22:33:39.075Z,11.58
2019-04-29T22:36:10.171Z,11.58
2019-04-29T22:38:43.700Z,11.61
2019-04-29T22:41:18.745Z,11.65
2019-04-29T22:43:47.921Z,11.71
2019-04-29T22:46:17.556Z,11.65
2019-04-29T22:48:48.688Z,11.66
2019-04-29T22:51:19.037Z,11.71
2019-04-29T22:53:48.583Z,11.67
2019-04-29T22:56:17.999Z,11.63
2019-04-29T22:58:47.580Z,11.64
2019-04-29T23:01:17.745Z,11.66
2019-04-29T23:03:47.325Z,11.65
2019-04-29T23:06:16.700Z,11.64
2019-04-29T23:08:46.168Z,11.65
2019-04-29T23:11:15.648Z,11.66
2019-04-29T23:13:46.166Z,11.72
2019-04-29T23:16:16.178Z,11.69
2019-04-29T23:18:50.513Z,11.68
2019-04-29T23:21:23.130Z,11.65
2019-04-29T23:24:13.227Z,11.63
2019-04-29T23:26:42.572Z,11.59
2019-04-29T23:29:12.072Z,11.55
2019-04-29T23:31:41.464Z,11.55
2019-04-29T23:34:10.878Z,11.56
2019-04-29T23:36:40.276Z,11.60
2019-04-29T23:39:09.695Z,11.58
2019-04-29T23:41:39.088Z,11.60
2019-04-29T23:44:08.958Z,11.63
2019-04-29T23:46:38.401Z,11.67
2019-04-29T23:49:07.829Z,11.67
2019-04-29T23:51:37.726Z,11.67
2019-04-29T23:54:08.019Z,11.58
2019-04-29T23:56:56.496Z,11.57
2019-04-29T23:59:27.629Z,11.60
